sensor_id;sensor_type;location;lat;lon;timestamp;P1;durP1;ratioP1;P2;durP2;ratioP2
47161;SDS011;32921;53.256;8.198;2022-09-09T00:00:19;69.65;;;32.65;;
47161;SDS011;32921;53.256;8.198;2022-09-09T00:02:47;59.85;;;33.10;;
47161;SDS011;32921;53.256;8.198;2022-09-09T00:05:33;65.43;;;32.72;;
47161;SDS011;32921;53.256;8.198;2022-09-09T00:08:15;60.30;;;32.00;;
47161;SDS011;32921;53.256;8.198;2022-09-09T00:10:45;62.15;;;34.72;;
47161;SDS011;32921;53.256;8.198;2022-09-09T00:13:37;63.00;;;32.45;;
47161;SDS011;32921;53.256;8.198;2022-09-09T00:16:17;57.45;;;30.55;;
47161;SDS011;32921;53.256;8.198;2022-09-09T00:18:59;70.20;;;33.85;;
47161;SDS011;32921;53.256;8.198;2022-09-09T00:21:38;74.80;;;34.80;;
47161;SDS011;32921;53.256;8.198;2022-09-09T00:24:10;73.82;;;34.67;;
47161;SDS011;32921;53.256;8.198;2022-09-09T00:26:51;79.40;;;36.13;;
47161;SDS011;32921;53.256;8.198;2022-09-09T00:29:28;76.22;;;34.58;;
47161;SDS011;32921;53.256;8.198;2022-09-09T00:32:14;68.97;;;33.55;;
47161;SDS011;32921;53.256;8.198;2022-09-09T00:37:42;77.22;;;35.67;;
47161;SDS011;32921;53.256;8.198;2022-09-09T00:40:17;74.13;;;35.67;;
47161;SDS011;32921;53.256;8.198;2022-09-09T00:45:47;65.20;;;34.00;;
47161;SDS011;32921;53.256;8.198;2022-09-09T00:48:25;75.65;;;36.53;;
47161;SDS011;32921;53.256;8.198;2022-09-09T00:51:03;69.53;;;35.33;;
47161;SDS011;32921;53.256;8.198;2022-09-09T00:56:20;70.63;;;36.47;;
47161;SDS011;32921;53.256;8.198;2022-09-09T01:01:21;72.80;;;35.75;;
47161;SDS011;32921;53.256;8.198;2022-09-09T01:03:48;74.82;;;37.35;;
47161;SDS011;32921;53.256;8.198;2022-09-09T01:11:57;74.13;;;36.30;;
47161;SDS011;32921;53.256;8.198;2022-09-09T01:14:37;74.93;;;37.35;;
47161;SDS011;32921;53.256;8.198;2022-09-09T01:19:54;69.35;;;36.20;;
47161;SDS011;32921;53.256;8.198;2022-09-09T01:25:56;81.07;;;39.30;;
47161;SDS011;32921;53.256;8.198;2022-09-09T01:28:30;80.00;;;39.40;;
47161;SDS011;32921;53.256;8.198;2022-09-09T01:31:00;65.90;;;34.60;;
47161;SDS011;32921;53.256;8.198;2022-09-09T01:33:27;73.25;;;36.30;;
47161;SDS011;32921;53.256;8.198;2022-09-09T01:35:57;69.35;;;36.28;;
47161;SDS011;32921;53.256;8.198;2022-09-09T01:38:32;69.68;;;37.38;;
47161;SDS011;32921;53.256;8.198;2022-09-09T01:40:59;59.58;;;33.80;;
47161;SDS011;32921;53.256;8.198;2022-09-09T01:43:25;66.75;;;35.33;;
47161;SDS011;32921;53.256;8.198;2022-09-09T01:45:54;75.13;;;36.67;;
47161;SDS011;32921;53.256;8.198;2022-09-09T01:48:22;67.95;;;36.67;;
47161;SDS011;32921;53.256;8.198;2022-09-09T01:50:49;67.93;;;35.88;;
47161;SDS011;32921;53.256;8.198;2022-09-09T01:53:15;73.00;;;36.75;;
47161;SDS011;32921;53.256;8.198;2022-09-09T01:55:45;72.47;;;37.40;;
47161;SDS011;32921;53.256;8.198;2022-09-09T01:58:22;73.82;;;37.67;;
47161;SDS011;32921;53.256;8.198;2022-09-09T02:01:00;68.50;;;36.28;;
47161;SDS011;32921;53.256;8.198;2022-09-09T02:03:28;70.22;;;36.65;;
47161;SDS011;32921;53.256;8.198;2022-09-09T02:08:45;73.88;;;38.17;;
47161;SDS011;32921;53.256;8.198;2022-09-09T02:11:17;73.30;;;37.88;;
47161;SDS011;32921;53.256;8.198;2022-09-09T02:13:45;75.60;;;39.92;;
47161;SDS011;32921;53.256;8.198;2022-09-09T02:16:15;75.00;;;40.05;;
47161;SDS011;32921;53.256;8.198;2022-09-09T02:21:22;70.75;;;37.85;;
47161;SDS011;32921;53.256;8.198;2022-09-09T02:23:49;68.53;;;37.17;;
47161;SDS011;32921;53.256;8.198;2022-09-09T02:26:17;66.20;;;36.88;;
47161;SDS011;32921;53.256;8.198;2022-09-09T02:28:47;64.10;;;36.05;;
47161;SDS011;32921;53.256;8.198;2022-09-09T02:31:15;70.97;;;37.88;;
47161;SDS011;32921;53.256;8.198;2022-09-09T02:33:45;62.17;;;35.30;;
47161;SDS011;32921;53.256;8.198;2022-09-09T02:38:45;63.10;;;34.03;;
47161;SDS011;32921;53.256;8.198;2022-09-09T02:41:19;64.47;;;34.53;;
47161;SDS011;32921;53.256;8.198;2022-09-09T02:43:47;58.08;;;33.75;;
47161;SDS011;32921;53.256;8.198;2022-09-09T02:49:06;60.45;;;33.55;;
47161;SDS011;32921;53.256;8.198;2022-09-09T02:56:52;66.60;;;34.78;;
47161;SDS011;32921;53.256;8.198;2022-09-09T02:59:19;56.25;;;33.67;;
47161;SDS011;32921;53.256;8.198;2022-09-09T03:01:45;60.85;;;35.83;;
47161;SDS011;32921;53.256;8.198;2022-09-09T03:04:11;58.13;;;33.58;;
47161;SDS011;32921;53.256;8.198;2022-09-09T03:06:37;60.70;;;35.67;;
47161;SDS011;32921;53.256;8.198;2022-09-09T03:09:03;62.95;;;34.47;;
47161;SDS011;32921;53.256;8.198;2022-09-09T03:11:29;60.38;;;34.28;;
47161;SDS011;32921;53.256;8.198;2022-09-09T03:13:54;60.20;;;33.38;;
47161;SDS011;32921;53.256;8.198;2022-09-09T03:16:21;53.38;;;31.95;;
47161;SDS011;32921;53.256;8.198;2022-09-09T03:18:47;53.85;;;32.45;;
47161;SDS011;32921;53.256;8.198;2022-09-09T03:21:14;59.25;;;34.13;;
47161;SDS011;32921;53.256;8.198;2022-09-09T03:23:39;69.32;;;35.95;;
47161;SDS011;32921;53.256;8.198;2022-09-09T03:26:05;50.42;;;30.80;;
47161;SDS011;32921;53.256;8.198;2022-09-09T03:28:31;50.10;;;30.05;;
47161;SDS011;32921;53.256;8.198;2022-09-09T03:31:00;54.67;;;32.75;;
47161;SDS011;32921;53.256;8.198;2022-09-09T03:33:26;53.92;;;30.83;;
47161;SDS011;32921;53.256;8.198;2022-09-09T03:35:52;52.25;;;30.00;;
47161;SDS011;32921;53.256;8.198;2022-09-09T03:38:18;47.03;;;29.75;;
47161;SDS011;32921;53.256;8.198;2022-09-09T03:40:48;50.55;;;29.77;;
47161;SDS011;32921;53.256;8.198;2022-09-09T03:43:15;48.03;;;29.83;;
47161;SDS011;32921;53.256;8.198;2022-09-09T03:45:44;48.40;;;29.23;;
47161;SDS011;32921;53.256;8.198;2022-09-09T03:48:12;47.75;;;27.50;;
47161;SDS011;32921;53.256;8.198;2022-09-09T03:50:38;46.53;;;29.08;;
47161;SDS011;32921;53.256;8.198;2022-09-09T03:53:03;48.05;;;28.77;;
47161;SDS011;32921;53.256;8.198;2022-09-09T03:55:30;50.10;;;28.77;;
47161;SDS011;32921;53.256;8.198;2022-09-09T03:57:57;49.10;;;27.25;;
47161;SDS011;32921;53.256;8.198;2022-09-09T04:00:23;42.22;;;27.35;;
47161;SDS011;32921;53.256;8.198;2022-09-09T04:02:48;37.65;;;25.17;;
47161;SDS011;32921;53.256;8.198;2022-09-09T04:05:14;37.75;;;25.67;;
47161;SDS011;32921;53.256;8.198;2022-09-09T04:07:40;41.90;;;26.40;;
47161;SDS011;32921;53.256;8.198;2022-09-09T04:10:06;41.45;;;24.77;;
47161;SDS011;32921;53.256;8.198;2022-09-09T04:12:33;37.30;;;25.27;;
47161;SDS011;32921;53.256;8.198;2022-09-09T04:14:59;45.05;;;26.63;;
47161;SDS011;32921;53.256;8.198;2022-09-09T04:17:26;42.33;;;25.05;;
47161;SDS011;32921;53.256;8.198;2022-09-09T04:19:52;34.17;;;24.52;;
47161;SDS011;32921;53.256;8.198;2022-09-09T04:22:18;37.55;;;24.30;;
47161;SDS011;32921;53.256;8.198;2022-09-09T04:24:44;41.83;;;24.63;;
47161;SDS011;32921;53.256;8.198;2022-09-09T04:27:09;37.33;;;25.52;;
47161;SDS011;32921;53.256;8.198;2022-09-09T04:29:35;39.88;;;25.45;;
47161;SDS011;32921;53.256;8.198;2022-09-09T04:32:00;37.42;;;24.98;;
47161;SDS011;32921;53.256;8.198;2022-09-09T04:34:26;40.75;;;24.92;;
47161;SDS011;32921;53.256;8.198;2022-09-09T04:36:52;41.65;;;25.20;;
47161;SDS011;32921;53.256;8.198;2022-09-09T04:39:17;35.80;;;24.27;;
47161;SDS011;32921;53.256;8.198;2022-09-09T04:41:43;40.63;;;24.63;;
47161;SDS011;32921;53.256;8.198;2022-09-09T04:44:08;39.10;;;23.40;;
47161;SDS011;32921;53.256;8.198;2022-09-09T04:46:35;37.17;;;25.08;;
47161;SDS011;32921;53.256;8.198;2022-09-09T04:49:00;36.80;;;24.15;;
47161;SDS011;32921;53.256;8.198;2022-09-09T04:51:26;39.03;;;24.63;;
47161;SDS011;32921;53.256;8.198;2022-09-09T04:53:51;41.72;;;24.98;;
47161;SDS011;32921;53.256;8.198;2022-09-09T04:56:19;42.88;;;25.20;;
47161;SDS011;32921;53.256;8.198;2022-09-09T04:58:45;44.00;;;25.98;;
47161;SDS011;32921;53.256;8.198;2022-09-09T05:01:11;38.05;;;25.00;;
47161;SDS011;32921;53.256;8.198;2022-09-09T05:03:38;37.72;;;25.33;;
47161;SDS011;32921;53.256;8.198;2022-09-09T05:06:05;42.13;;;25.50;;
47161;SDS011;32921;53.256;8.198;2022-09-09T05:08:41;37.45;;;25.13;;
47161;SDS011;32921;53.256;8.198;2022-09-09T05:11:24;41.97;;;25.90;;
47161;SDS011;32921;53.256;8.198;2022-09-09T05:13:52;49.42;;;27.02;;
47161;SDS011;32921;53.256;8.198;2022-09-09T05:16:18;44.95;;;26.20;;
47161;SDS011;32921;53.256;8.198;2022-09-09T05:18:45;37.75;;;24.80;;
47161;SDS011;32921;53.256;8.198;2022-09-09T05:21:11;39.28;;;26.58;;
47161;SDS011;32921;53.256;8.198;2022-09-09T05:23:38;39.80;;;25.58;;
47161;SDS011;32921;53.256;8.198;2022-09-09T05:26:05;39.33;;;24.70;;
47161;SDS011;32921;53.256;8.198;2022-09-09T05:28:33;40.60;;;26.85;;
47161;SDS011;32921;53.256;8.198;2022-09-09T05:31:04;42.22;;;26.10;;
47161;SDS011;32921;53.256;8.198;2022-09-09T05:33:36;37.65;;;23.38;;
47161;SDS011;32921;53.256;8.198;2022-09-09T05:36:05;38.95;;;24.98;;
47161;SDS011;32921;53.256;8.198;2022-09-09T05:38:32;36.42;;;24.13;;
47161;SDS011;32921;53.256;8.198;2022-09-09T05:40:59;39.45;;;24.38;;
47161;SDS011;32921;53.256;8.198;2022-09-09T05:43:26;42.33;;;24.20;;
47161;SDS011;32921;53.256;8.198;2022-09-09T05:48:50;34.88;;;21.40;;
47161;SDS011;32921;53.256;8.198;2022-09-09T05:51:17;31.42;;;20.60;;
47161;SDS011;32921;53.256;8.198;2022-09-09T05:53:46;29.83;;;20.48;;
47161;SDS011;32921;53.256;8.198;2022-09-09T05:56:14;32.38;;;20.10;;
47161;SDS011;32921;53.256;8.198;2022-09-09T05:58:42;24.88;;;17.35;;
47161;SDS011;32921;53.256;8.198;2022-09-09T06:01:28;29.90;;;16.30;;
47161;SDS011;32921;53.256;8.198;2022-09-09T06:03:55;26.92;;;16.98;;
47161;SDS011;32921;53.256;8.198;2022-09-09T06:06:22;22.33;;;15.20;;
47161;SDS011;32921;53.256;8.198;2022-09-09T06:08:51;19.77;;;13.90;;
47161;SDS011;32921;53.256;8.198;2022-09-09T06:11:19;20.63;;;13.98;;
47161;SDS011;32921;53.256;8.198;2022-09-09T06:13:52;23.45;;;13.45;;
47161;SDS011;32921;53.256;8.198;2022-09-09T06:16:20;24.80;;;13.68;;
47161;SDS011;32921;53.256;8.198;2022-09-09T06:18:50;22.20;;;12.30;;
47161;SDS011;32921;53.256;8.198;2022-09-09T06:21:18;18.02;;;12.25;;
47161;SDS011;32921;53.256;8.198;2022-09-09T06:23:46;19.25;;;12.07;;
47161;SDS011;32921;53.256;8.198;2022-09-09T06:26:13;18.55;;;12.30;;
47161;SDS011;32921;53.256;8.198;2022-09-09T06:28:42;16.30;;;11.77;;
47161;SDS011;32921;53.256;8.198;2022-09-09T06:31:10;18.67;;;11.73;;
47161;SDS011;32921;53.256;8.198;2022-09-09T06:33:38;17.38;;;11.02;;
47161;SDS011;32921;53.256;8.198;2022-09-09T06:36:06;18.27;;;11.40;;
47161;SDS011;32921;53.256;8.198;2022-09-09T06:38:35;18.40;;;11.45;;
47161;SDS011;32921;53.256;8.198;2022-09-09T06:41:00;18.35;;;11.85;;
47161;SDS011;32921;53.256;8.198;2022-09-09T06:43:26;21.52;;;12.20;;
47161;SDS011;32921;53.256;8.198;2022-09-09T06:45:59;18.30;;;11.27;;
47161;SDS011;32921;53.256;8.198;2022-09-09T06:48:27;18.00;;;11.30;;
47161;SDS011;32921;53.256;8.198;2022-09-09T06:53:32;17.40;;;11.30;;
47161;SDS011;32921;53.256;8.198;2022-09-09T06:56:02;16.67;;;9.90;;
47161;SDS011;32921;53.256;8.198;2022-09-09T06:58:48;14.70;;;9.80;;
47161;SDS011;32921;53.256;8.198;2022-09-09T07:01:16;14.05;;;9.82;;
47161;SDS011;32921;53.256;8.198;2022-09-09T07:03:48;18.10;;;10.27;;
47161;SDS011;32921;53.256;8.198;2022-09-09T07:06:28;15.48;;;9.57;;
47161;SDS011;32921;53.256;8.198;2022-09-09T07:09:00;17.45;;;9.45;;
47161;SDS011;32921;53.256;8.198;2022-09-09T07:11:29;14.85;;;9.35;;
47161;SDS011;32921;53.256;8.198;2022-09-09T07:13:57;17.75;;;8.52;;
47161;SDS011;32921;53.256;8.198;2022-09-09T07:16:24;14.52;;;9.05;;
47161;SDS011;32921;53.256;8.198;2022-09-09T07:18:52;15.00;;;8.70;;
47161;SDS011;32921;53.256;8.198;2022-09-09T07:21:22;14.98;;;8.30;;
47161;SDS011;32921;53.256;8.198;2022-09-09T07:23:49;13.27;;;7.90;;
47161;SDS011;32921;53.256;8.198;2022-09-09T07:26:16;13.80;;;7.68;;
47161;SDS011;32921;53.256;8.198;2022-09-09T07:28:44;12.65;;;7.10;;
47161;SDS011;32921;53.256;8.198;2022-09-09T07:31:20;11.30;;;6.72;;
47161;SDS011;32921;53.256;8.198;2022-09-09T07:33:47;10.82;;;6.40;;
47161;SDS011;32921;53.256;8.198;2022-09-09T07:41:42;8.02;;;5.07;;
47161;SDS011;32921;53.256;8.198;2022-09-09T07:44:10;11.80;;;5.28;;
47161;SDS011;32921;53.256;8.198;2022-09-09T07:46:38;9.32;;;4.90;;
47161;SDS011;32921;53.256;8.198;2022-09-09T07:49:07;12.13;;;4.97;;
47161;SDS011;32921;53.256;8.198;2022-09-09T07:51:37;10.90;;;5.68;;
47161;SDS011;32921;53.256;8.198;2022-09-09T07:54:06;10.55;;;4.70;;
47161;SDS011;32921;53.256;8.198;2022-09-09T07:56:34;10.40;;;4.93;;
47161;SDS011;32921;53.256;8.198;2022-09-09T08:02:22;11.40;;;5.60;;
47161;SDS011;32921;53.256;8.198;2022-09-09T08:04:49;10.48;;;5.53;;
47161;SDS011;32921;53.256;8.198;2022-09-09T08:07:14;11.93;;;6.20;;
47161;SDS011;32921;53.256;8.198;2022-09-09T08:09:41;10.98;;;6.25;;
47161;SDS011;32921;53.256;8.198;2022-09-09T08:12:06;10.52;;;6.00;;
47161;SDS011;32921;53.256;8.198;2022-09-09T08:14:33;10.90;;;6.47;;
47161;SDS011;32921;53.256;8.198;2022-09-09T08:16:59;11.00;;;6.50;;
47161;SDS011;32921;53.256;8.198;2022-09-09T08:19:24;10.77;;;6.88;;
47161;SDS011;32921;53.256;8.198;2022-09-09T08:21:50;14.63;;;6.63;;
47161;SDS011;32921;53.256;8.198;2022-09-09T08:24:16;12.90;;;6.40;;
47161;SDS011;32921;53.256;8.198;2022-09-09T08:26:45;12.63;;;7.10;;
47161;SDS011;32921;53.256;8.198;2022-09-09T08:29:13;10.23;;;6.38;;
47161;SDS011;32921;53.256;8.198;2022-09-09T08:34:07;10.38;;;6.22;;
47161;SDS011;32921;53.256;8.198;2022-09-09T08:36:38;11.70;;;5.82;;
47161;SDS011;32921;53.256;8.198;2022-09-09T08:39:14;11.90;;;5.45;;
47161;SDS011;32921;53.256;8.198;2022-09-09T08:44:28;9.57;;;4.63;;
47161;SDS011;32921;53.256;8.198;2022-09-09T08:50:01;9.77;;;4.70;;
47161;SDS011;32921;53.256;8.198;2022-09-09T08:57:43;11.15;;;4.70;;
47161;SDS011;32921;53.256;8.198;2022-09-09T09:00:11;11.88;;;4.45;;
47161;SDS011;32921;53.256;8.198;2022-09-09T09:02:46;9.93;;;4.70;;
47161;SDS011;32921;53.256;8.198;2022-09-09T09:07:57;9.52;;;4.75;;
47161;SDS011;32921;53.256;8.198;2022-09-09T09:10:39;9.23;;;3.83;;
47161;SDS011;32921;53.256;8.198;2022-09-09T09:13:34;8.80;;;3.63;;
47161;SDS011;32921;53.256;8.198;2022-09-09T09:18:57;7.35;;;3.53;;
47161;SDS011;32921;53.256;8.198;2022-09-09T09:23:59;8.77;;;3.65;;
47161;SDS011;32921;53.256;8.198;2022-09-09T09:26:30;8.98;;;3.50;;
47161;SDS011;32921;53.256;8.198;2022-09-09T09:28:58;5.78;;;2.90;;
47161;SDS011;32921;53.256;8.198;2022-09-09T09:31:26;8.93;;;3.25;;
47161;SDS011;32921;53.256;8.198;2022-09-09T09:33:52;10.73;;;3.10;;
47161;SDS011;32921;53.256;8.198;2022-09-09T09:36:24;5.18;;;2.30;;
47161;SDS011;32921;53.256;8.198;2022-09-09T09:38:59;9.25;;;1.85;;
47161;SDS011;32921;53.256;8.198;2022-09-09T09:44:04;6.43;;;2.25;;
47161;SDS011;32921;53.256;8.198;2022-09-09T09:46:30;8.38;;;2.40;;
47161;SDS011;32921;53.256;8.198;2022-09-09T09:48:57;5.82;;;2.22;;
47161;SDS011;32921;53.256;8.198;2022-09-09T09:51:23;7.22;;;2.38;;
47161;SDS011;32921;53.256;8.198;2022-09-09T09:53:50;7.30;;;2.72;;
47161;SDS011;32921;53.256;8.198;2022-09-09T09:56:17;7.15;;;2.75;;
47161;SDS011;32921;53.256;8.198;2022-09-09T09:58:53;6.22;;;2.28;;
47161;SDS011;32921;53.256;8.198;2022-09-09T10:01:21;6.38;;;2.45;;
47161;SDS011;32921;53.256;8.198;2022-09-09T10:06:31;7.55;;;2.60;;
47161;SDS011;32921;53.256;8.198;2022-09-09T10:08:58;9.57;;;2.58;;
47161;SDS011;32921;53.256;8.198;2022-09-09T10:14:14;9.18;;;2.65;;
47161;SDS011;32921;53.256;8.198;2022-09-09T10:19:31;9.18;;;2.38;;
47161;SDS011;32921;53.256;8.198;2022-09-09T10:22:14;7.97;;;2.58;;
47161;SDS011;32921;53.256;8.198;2022-09-09T10:25:00;7.75;;;2.20;;
47161;SDS011;32921;53.256;8.198;2022-09-09T10:30:33;11.82;;;2.22;;
47161;SDS011;32921;53.256;8.198;2022-09-09T10:36:23;7.82;;;2.00;;
47161;SDS011;32921;53.256;8.198;2022-09-09T10:38:55;7.90;;;2.10;;
47161;SDS011;32921;53.256;8.198;2022-09-09T10:44:11;9.40;;;2.22;;
47161;SDS011;32921;53.256;8.198;2022-09-09T10:49:29;6.65;;;1.30;;
47161;SDS011;32921;53.256;8.198;2022-09-09T10:52:36;8.43;;;1.88;;
47161;SDS011;32921;53.256;8.198;2022-09-09T10:55:25;10.20;;;2.08;;
47161;SDS011;32921;53.256;8.198;2022-09-09T10:57:58;9.20;;;1.40;;
47161;SDS011;32921;53.256;8.198;2022-09-09T11:00:35;5.90;;;1.75;;
47161;SDS011;32921;53.256;8.198;2022-09-09T11:03:02;6.28;;;1.50;;
47161;SDS011;32921;53.256;8.198;2022-09-09T11:05:45;7.05;;;1.60;;
47161;SDS011;32921;53.256;8.198;2022-09-09T11:08:21;6.28;;;1.60;;
47161;SDS011;32921;53.256;8.198;2022-09-09T11:18:50;10.27;;;1.80;;
47161;SDS011;32921;53.256;8.198;2022-09-09T11:21:31;6.65;;;1.88;;
47161;SDS011;32921;53.256;8.198;2022-09-09T11:24:03;7.68;;;2.13;;
47161;SDS011;32921;53.256;8.198;2022-09-09T11:26:39;6.50;;;1.75;;
47161;SDS011;32921;53.256;8.198;2022-09-09T11:34:56;7.43;;;2.20;;
47161;SDS011;32921;53.256;8.198;2022-09-09T11:40:25;6.00;;;1.67;;
47161;SDS011;32921;53.256;8.198;2022-09-09T11:43:02;8.88;;;1.90;;
47161;SDS011;32921;53.256;8.198;2022-09-09T11:45:33;5.32;;;1.75;;
47161;SDS011;32921;53.256;8.198;2022-09-09T11:48:01;7.68;;;1.92;;
47161;SDS011;32921;53.256;8.198;2022-09-09T11:50:37;7.05;;;1.98;;
47161;SDS011;32921;53.256;8.198;2022-09-09T11:53:04;9.65;;;1.90;;
47161;SDS011;32921;53.256;8.198;2022-09-09T11:55:41;7.80;;;2.20;;
47161;SDS011;32921;53.256;8.198;2022-09-09T12:00:36;13.10;;;2.90;;
47161;SDS011;32921;53.256;8.198;2022-09-09T12:03:05;12.40;;;2.30;;
47161;SDS011;32921;53.256;8.198;2022-09-09T12:05:51;9.70;;;3.05;;
47161;SDS011;32921;53.256;8.198;2022-09-09T12:08:19;10.98;;;3.47;;
47161;SDS011;32921;53.256;8.198;2022-09-09T12:11:01;14.35;;;3.72;;
47161;SDS011;32921;53.256;8.198;2022-09-09T12:13:30;12.70;;;4.10;;
47161;SDS011;32921;53.256;8.198;2022-09-09T12:15:57;14.70;;;5.70;;
47161;SDS011;32921;53.256;8.198;2022-09-09T12:18:25;14.52;;;6.10;;
47161;SDS011;32921;53.256;8.198;2022-09-09T12:21:07;14.73;;;5.30;;
47161;SDS011;32921;53.256;8.198;2022-09-09T12:23:55;14.68;;;5.65;;
47161;SDS011;32921;53.256;8.198;2022-09-09T12:26:32;16.63;;;6.22;;
47161;SDS011;32921;53.256;8.198;2022-09-09T12:31:53;13.68;;;5.57;;
47161;SDS011;32921;53.256;8.198;2022-09-09T12:34:34;10.05;;;4.78;;
47161;SDS011;32921;53.256;8.198;2022-09-09T12:37:25;12.02;;;5.28;;
47161;SDS011;32921;53.256;8.198;2022-09-09T12:40:26;11.15;;;4.70;;
47161;SDS011;32921;53.256;8.198;2022-09-09T12:42:57;15.80;;;5.72;;
47161;SDS011;32921;53.256;8.198;2022-09-09T12:45:27;13.57;;;5.60;;
47161;SDS011;32921;53.256;8.198;2022-09-09T12:47:59;17.63;;;5.90;;
47161;SDS011;32921;53.256;8.198;2022-09-09T12:50:29;18.05;;;5.90;;
47161;SDS011;32921;53.256;8.198;2022-09-09T12:53:12;12.98;;;5.78;;
47161;SDS011;32921;53.256;8.198;2022-09-09T12:55:49;14.93;;;5.22;;
47161;SDS011;32921;53.256;8.198;2022-09-09T12:58:17;12.68;;;4.00;;
47161;SDS011;32921;53.256;8.198;2022-09-09T13:00:51;10.98;;;3.53;;
47161;SDS011;32921;53.256;8.198;2022-09-09T13:03:20;10.10;;;3.33;;
47161;SDS011;32921;53.256;8.198;2022-09-09T13:05:46;10.40;;;3.47;;
47161;SDS011;32921;53.256;8.198;2022-09-09T13:08:12;6.65;;;2.13;;
47161;SDS011;32921;53.256;8.198;2022-09-09T13:10:43;8.23;;;2.20;;
47161;SDS011;32921;53.256;8.198;2022-09-09T13:13:15;8.90;;;3.00;;
47161;SDS011;32921;53.256;8.198;2022-09-09T13:15:49;7.70;;;2.67;;
47161;SDS011;32921;53.256;8.198;2022-09-09T13:18:23;9.07;;;3.65;;
47161;SDS011;32921;53.256;8.198;2022-09-09T13:20:52;13.70;;;3.88;;
47161;SDS011;32921;53.256;8.198;2022-09-09T13:23:19;13.93;;;4.90;;
47161;SDS011;32921;53.256;8.198;2022-09-09T13:25:53;13.50;;;4.93;;
47161;SDS011;32921;53.256;8.198;2022-09-09T13:28:25;10.43;;;4.50;;
47161;SDS011;32921;53.256;8.198;2022-09-09T13:30:56;10.35;;;4.35;;
47161;SDS011;32921;53.256;8.198;2022-09-09T13:33:36;9.85;;;4.25;;
47161;SDS011;32921;53.256;8.198;2022-09-09T13:36:03;10.50;;;5.60;;
47161;SDS011;32921;53.256;8.198;2022-09-09T13:38:31;12.40;;;5.22;;
47161;SDS011;32921;53.256;8.198;2022-09-09T13:41:01;15.32;;;6.07;;
47161;SDS011;32921;53.256;8.198;2022-09-09T13:43:36;14.32;;;6.13;;
47161;SDS011;32921;53.256;8.198;2022-09-09T13:52:27;15.38;;;6.45;;
47161;SDS011;32921;53.256;8.198;2022-09-09T13:54:56;11.55;;;6.00;;
47161;SDS011;32921;53.256;8.198;2022-09-09T13:57:24;12.05;;;6.35;;
47161;SDS011;32921;53.256;8.198;2022-09-09T13:59:51;12.10;;;6.07;;
47161;SDS011;32921;53.256;8.198;2022-09-09T14:02:18;13.23;;;6.13;;
47161;SDS011;32921;53.256;8.198;2022-09-09T14:04:44;15.40;;;6.20;;
47161;SDS011;32921;53.256;8.198;2022-09-09T14:07:13;13.45;;;6.10;;
47161;SDS011;32921;53.256;8.198;2022-09-09T14:09:40;10.73;;;5.38;;
47161;SDS011;32921;53.256;8.198;2022-09-09T14:12:10;13.60;;;5.75;;
47161;SDS011;32921;53.256;8.198;2022-09-09T14:14:37;14.60;;;5.28;;
47161;SDS011;32921;53.256;8.198;2022-09-09T14:17:03;15.45;;;5.60;;
47161;SDS011;32921;53.256;8.198;2022-09-09T14:19:30;12.02;;;5.22;;
47161;SDS011;32921;53.256;8.198;2022-09-09T14:21:56;11.70;;;4.82;;
47161;SDS011;32921;53.256;8.198;2022-09-09T14:24:22;8.50;;;4.00;;
47161;SDS011;32921;53.256;8.198;2022-09-09T14:26:48;16.33;;;4.82;;
47161;SDS011;32921;53.256;8.198;2022-09-09T14:29:14;10.57;;;4.50;;
47161;SDS011;32921;53.256;8.198;2022-09-09T14:31:39;13.02;;;4.10;;
47161;SDS011;32921;53.256;8.198;2022-09-09T14:34:05;9.63;;;3.00;;
47161;SDS011;32921;53.256;8.198;2022-09-09T14:36:31;8.95;;;3.10;;
47161;SDS011;32921;53.256;8.198;2022-09-09T14:38:56;7.18;;;2.55;;
47161;SDS011;32921;53.256;8.198;2022-09-09T14:41:23;6.03;;;1.95;;
47161;SDS011;32921;53.256;8.198;2022-09-09T14:43:50;6.90;;;2.47;;
47161;SDS011;32921;53.256;8.198;2022-09-09T14:46:17;6.68;;;2.47;;
47161;SDS011;32921;53.256;8.198;2022-09-09T14:48:43;9.55;;;2.67;;
47161;SDS011;32921;53.256;8.198;2022-09-09T14:51:14;6.43;;;2.30;;
47161;SDS011;32921;53.256;8.198;2022-09-09T14:53:42;7.60;;;2.42;;
47161;SDS011;32921;53.256;8.198;2022-09-09T14:56:13;7.50;;;2.70;;
47161;SDS011;32921;53.256;8.198;2022-09-09T14:58:40;7.97;;;2.25;;
47161;SDS011;32921;53.256;8.198;2022-09-09T15:01:07;8.15;;;2.20;;
47161;SDS011;32921;53.256;8.198;2022-09-09T15:03:37;5.35;;;2.05;;
47161;SDS011;32921;53.256;8.198;2022-09-09T15:06:10;6.88;;;2.30;;
47161;SDS011;32921;53.256;8.198;2022-09-09T15:08:37;4.63;;;2.00;;
47161;SDS011;32921;53.256;8.198;2022-09-09T15:11:04;4.90;;;1.90;;
47161;SDS011;32921;53.256;8.198;2022-09-09T15:13:32;7.53;;;2.80;;
47161;SDS011;32921;53.256;8.198;2022-09-09T15:16:09;6.40;;;2.60;;
47161;SDS011;32921;53.256;8.198;2022-09-09T15:18:36;6.70;;;2.42;;
47161;SDS011;32921;53.256;8.198;2022-09-09T15:21:08;5.63;;;2.25;;
47161;SDS011;32921;53.256;8.198;2022-09-09T15:23:38;6.57;;;2.53;;
47161;SDS011;32921;53.256;8.198;2022-09-09T15:26:04;9.40;;;2.10;;
47161;SDS011;32921;53.256;8.198;2022-09-09T15:28:31;7.18;;;2.33;;
47161;SDS011;32921;53.256;8.198;2022-09-09T15:31:02;6.68;;;2.20;;
47161;SDS011;32921;53.256;8.198;2022-09-09T15:33:33;5.55;;;2.13;;
47161;SDS011;32921;53.256;8.198;2022-09-09T15:36:11;5.22;;;2.15;;
47161;SDS011;32921;53.256;8.198;2022-09-09T15:38:47;7.63;;;2.53;;
47161;SDS011;32921;53.256;8.198;2022-09-09T15:41:14;8.02;;;2.33;;
47161;SDS011;32921;53.256;8.198;2022-09-09T15:43:47;9.50;;;2.50;;
47161;SDS011;32921;53.256;8.198;2022-09-09T15:48:45;7.72;;;2.30;;
47161;SDS011;32921;53.256;8.198;2022-09-09T15:51:11;6.30;;;2.25;;
47161;SDS011;32921;53.256;8.198;2022-09-09T15:53:38;10.23;;;2.38;;
47161;SDS011;32921;53.256;8.198;2022-09-09T15:56:07;7.07;;;2.95;;
47161;SDS011;32921;53.256;8.198;2022-09-09T15:58:33;7.22;;;2.85;;
47161;SDS011;32921;53.256;8.198;2022-09-09T16:01:04;7.20;;;2.72;;
47161;SDS011;32921;53.256;8.198;2022-09-09T16:06:06;7.85;;;2.95;;
47161;SDS011;32921;53.256;8.198;2022-09-09T16:08:36;7.82;;;3.17;;
47161;SDS011;32921;53.256;8.198;2022-09-09T16:11:04;13.27;;;3.03;;
47161;SDS011;32921;53.256;8.198;2022-09-09T16:16:06;9.15;;;2.65;;
47161;SDS011;32921;53.256;8.198;2022-09-09T16:18:33;6.45;;;2.58;;
47161;SDS011;32921;53.256;8.198;2022-09-09T16:21:27;6.88;;;2.95;;
47161;SDS011;32921;53.256;8.198;2022-09-09T16:23:58;7.88;;;3.03;;
47161;SDS011;32921;53.256;8.198;2022-09-09T16:26:25;8.25;;;3.55;;
47161;SDS011;32921;53.256;8.198;2022-09-09T16:28:52;6.40;;;3.03;;
47161;SDS011;32921;53.256;8.198;2022-09-09T16:31:20;8.15;;;3.15;;
47161;SDS011;32921;53.256;8.198;2022-09-09T16:33:46;7.75;;;3.10;;
47161;SDS011;32921;53.256;8.198;2022-09-09T16:36:14;8.75;;;2.92;;
47161;SDS011;32921;53.256;8.198;2022-09-09T16:38:42;9.13;;;4.00;;
47161;SDS011;32921;53.256;8.198;2022-09-09T16:41:08;9.40;;;3.75;;
47161;SDS011;32921;53.256;8.198;2022-09-09T16:43:35;6.28;;;3.60;;
47161;SDS011;32921;53.256;8.198;2022-09-09T16:46:14;9.88;;;3.95;;
47161;SDS011;32921;53.256;8.198;2022-09-09T16:48:44;9.52;;;4.13;;
47161;SDS011;32921;53.256;8.198;2022-09-09T16:51:15;10.93;;;3.60;;
47161;SDS011;32921;53.256;8.198;2022-09-09T16:53:41;9.80;;;3.58;;
47161;SDS011;32921;53.256;8.198;2022-09-09T16:56:08;7.10;;;3.17;;
47161;SDS011;32921;53.256;8.198;2022-09-09T16:58:36;10.00;;;3.35;;
47161;SDS011;32921;53.256;8.198;2022-09-09T17:01:02;10.88;;;3.97;;
47161;SDS011;32921;53.256;8.198;2022-09-09T17:03:29;13.45;;;4.45;;